createdAt,value
2018-10-07T00:01:14.382Z,13.77
2018-10-07T00:03:42.680Z,13.67
2018-10-07T00:06:10.836Z,13.60
2018-10-07T00:08:38.975Z,13.47
2018-10-07T00:11:07.180Z,13.41
2018-10-07T00:13:35.506Z,13.42
2018-10-07T00:16:03.692Z,13.35
2018-10-07T00:18:31.879Z,13.28
2018-10-07T00:21:00.227Z,13.26
2018-10-07T00:23:28.536Z,13.24
2018-10-07T00:25:56.723Z,13.15
2018-10-07T00:28:25.084Z,13.23
2018-10-07T00:30:53.346Z,13.25
2018-10-07T00:33:21.566Z,13.19
2018-10-07T00:35:49.716Z,13.25
2018-10-07T00:38:17.895Z,13.32
2018-10-07T00:40:46.239Z,13.25
2018-10-07T00:43:14.381Z,13.16
2018-10-07T00:45:42.574Z,13.12
2018-10-07T00:48:10.748Z,13.01
2018-10-07T00:50:38.909Z,13.04
2018-10-07T00:53:07.146Z,13.14
2018-10-07T00:55:35.357Z,13.07
2018-10-07T00:58:03.603Z,13.02
2018-10-07T01:00:31.825Z,13.00
2018-10-07T01:02:59.984Z,12.97
2018-10-07T01:05:28.412Z,12.96
2018-10-07T01:07:56.686Z,13.05
2018-10-07T01:10:24.908Z,12.98
2018-10-07T01:12:53.159Z,12.93
2018-10-07T01:15:21.476Z,12.93
2018-10-07T01:17:49.636Z,12.72
2018-10-07T01:20:17.817Z,12.66
2018-10-07T01:22:46.004Z,12.60
2018-10-07T01:25:14.199Z,12.36
2018-10-07T01:27:42.359Z,12.20
2018-10-07T01:30:10.528Z,12.25
2018-10-07T01:32:38.668Z,12.24
2018-10-07T01:35:07.049Z,12.26
2018-10-07T01:37:35.219Z,12.24
2018-10-07T01:40:03.430Z,12.13
2018-10-07T01:42:31.596Z,12.07
2018-10-07T01:44:59.801Z,11.98
2018-10-07T01:47:27.950Z,11.97
2018-10-07T01:49:56.224Z,11.95
2018-10-07T01:52:24.446Z,11.98
2018-10-07T01:54:52.731Z,11.83
2018-10-07T01:57:21.019Z,11.86
2018-10-07T01:59:49.179Z,11.82
2018-10-07T02:02:17.350Z,11.88
2018-10-07T02:04:45.572Z,11.84
2018-10-07T02:07:13.858Z,11.80
2018-10-07T02:09:42.122Z,11.81
2018-10-07T02:12:10.377Z,11.81
2018-10-07T02:14:38.611Z,11.77
2018-10-07T02:17:06.857Z,11.78
2018-10-07T02:19:35.041Z,11.77
2018-10-07T02:22:03.191Z,11.67
2018-10-07T02:24:31.505Z,11.64
2018-10-07T02:26:59.767Z,11.63
2018-10-07T02:29:27.908Z,11.71
2018-10-07T02:31:56.119Z,11.78
2018-10-07T02:34:24.375Z,11.74
2018-10-07T02:36:52.988Z,11.69
2018-10-07T02:39:21.321Z,11.78
2018-10-07T02:41:49.533Z,11.77
2018-10-07T02:44:17.916Z,11.76
2018-10-07T02:46:46.100Z,11.69
2018-10-07T02:49:14.373Z,11.67
2018-10-07T02:51:42.737Z,11.62
2018-10-07T02:54:10.935Z,11.48
2018-10-07T02:56:39.206Z,11.38
2018-10-07T02:59:07.552Z,11.36
2018-10-07T03:01:35.753Z,11.38
2018-10-07T03:04:04.131Z,11.29
2018-10-07T03:06:32.399Z,11.32
2018-10-07T03:09:00.573Z,11.28
2018-10-07T03:11:28.905Z,11.31
2018-10-07T03:13:57.095Z,11.24
2018-10-07T03:16:25.411Z,11.47
2018-10-07T03:18:53.772Z,11.51
2018-10-07T03:21:21.969Z,11.30
2018-10-07T03:23:50.293Z,11.23
2018-10-07T03:26:18.486Z,11.24
2018-10-07T03:28:46.691Z,11.32
2018-10-07T03:31:14.980Z,11.12
2018-10-07T03:33:43.254Z,11.16
2018-10-07T03:36:11.559Z,11.15
2018-10-07T03:38:39.751Z,11.14
2018-10-07T03:41:08.172Z,11.07
2018-10-07T03:43:36.353Z,11.03
2018-10-07T03:46:04.529Z,10.83
2018-10-07T03:48:32.735Z,10.72
2018-10-07T03:51:00.927Z,10.65
2018-10-07T03:53:29.109Z,10.72
2018-10-07T03:55:57.300Z,10.65
2018-10-07T03:58:25.491Z,10.62
2018-10-07T04:00:53.856Z,10.60
2018-10-07T04:03:22.511Z,10.81
2018-10-07T04:05:50.791Z,10.75
2018-10-07T04:08:18.941Z,10.61
2018-10-07T04:10:47.121Z,10.61
2018-10-07T04:13:15.275Z,10.59
2018-10-07T04:15:43.545Z,10.70
2018-10-07T04:18:11.999Z,10.63
2018-10-07T04:20:40.377Z,10.65
2018-10-07T04:23:08.577Z,10.56
2018-10-07T04:25:37.381Z,10.57
2018-10-07T04:28:05.555Z,10.48
2018-10-07T04:30:33.730Z,10.49
2018-10-07T04:33:01.896Z,10.48
2018-10-07T04:35:30.073Z,10.42
2018-10-07T04:37:58.225Z,10.41
2018-10-07T04:40:26.347Z,10.46
2018-10-07T04:42:54.607Z,10.49
2018-10-07T04:45:22.876Z,10.50
2018-10-07T04:47:51.042Z,10.44
2018-10-07T04:50:19.227Z,10.44
2018-10-07T04:52:47.410Z,10.55
2018-10-07T04:55:15.624Z,10.49
2018-10-07T04:57:43.921Z,10.41
2018-10-07T05:00:12.079Z,10.30
2018-10-07T05:02:40.303Z,10.32
2018-10-07T05:05:08.839Z,10.31
2018-10-07T05:07:36.984Z,10.29
2018-10-07T05:10:16.621Z,10.20
2018-10-07T05:12:44.876Z,10.19
2018-10-07T05:15:13.036Z,10.16
2018-10-07T05:17:41.272Z,10.13
2018-10-07T05:20:09.513Z,10.23
2018-10-07T05:22:37.761Z,10.14
2018-10-07T05:25:05.928Z,10.05
2018-10-07T05:27:34.087Z,10.00
2018-10-07T05:30:02.284Z,9.85
2018-10-07T05:32:30.496Z,9.70
2018-10-07T05:34:58.695Z,9.61
2018-10-07T05:37:26.933Z,9.52
2018-10-07T05:39:55.271Z,9.42
2018-10-07T05:42:23.541Z,9.44
2018-10-07T05:44:51.813Z,9.38
2018-10-07T05:47:19.943Z,9.47
2018-10-07T05:49:48.110Z,9.54
2018-10-07T05:52:16.271Z,9.65
2018-10-07T05:54:44.438Z,9.70
2018-10-07T05:57:12.564Z,9.70
2018-10-07T05:59:41.179Z,9.62
2018-10-07T06:02:09.819Z,9.68
2018-10-07T06:04:44.519Z,9.71
2018-10-07T06:07:12.820Z,9.78
2018-10-07T06:09:41.615Z,9.87
2018-10-07T06:12:09.775Z,9.96
2018-10-07T06:15:49.047Z,10.03
2018-10-07T06:18:17.243Z,10.17
2018-10-07T06:20:45.539Z,10.27
2018-10-07T06:23:13.717Z,10.43
2018-10-07T06:25:42.291Z,10.52
2018-10-07T06:28:10.527Z,10.60
2018-10-07T06:30:38.682Z,10.75
2018-10-07T06:33:06.843Z,10.90
2018-10-07T06:35:35.659Z,10.99
2018-10-07T06:38:04.472Z,11.14
2018-10-07T06:40:32.623Z,11.10
2018-10-07T06:43:00.827Z,11.37
2018-10-07T06:45:29.075Z,11.52
2018-10-07T06:47:57.151Z,11.62
2018-10-07T06:50:25.307Z,11.70
2018-10-07T06:52:53.611Z,11.69
2018-10-07T06:55:21.768Z,11.67
2018-10-07T06:57:50.036Z,11.61
2018-10-07T07:00:18.204Z,11.62
2018-10-07T07:02:46.423Z,11.64
2018-10-07T07:05:14.560Z,11.71
2018-10-07T07:07:42.784Z,11.81
2018-10-07T07:10:10.942Z,11.94
2018-10-07T07:12:39.180Z,12.09
2018-10-07T07:15:07.372Z,12.24
2018-10-07T07:17:35.649Z,12.43
2018-10-07T07:20:04.055Z,12.59
2018-10-07T07:22:32.167Z,12.73
2018-10-07T07:25:00.307Z,12.88
2018-10-07T07:27:28.472Z,13.01
2018-10-07T07:29:56.997Z,13.19
2018-10-07T07:32:25.186Z,13.35
2018-10-07T07:34:53.427Z,13.51
2018-10-07T07:37:21.755Z,13.71
2018-10-07T07:39:49.948Z,13.96
2018-10-07T07:42:18.142Z,14.13
2018-10-07T07:44:46.376Z,14.27
2018-10-07T07:47:14.523Z,14.31
2018-10-07T07:49:42.700Z,14.35
2018-10-07T07:52:10.853Z,14.47
2018-10-07T07:54:38.983Z,14.48
2018-10-07T07:57:07.437Z,14.40
2018-10-07T07:59:35.859Z,14.55
2018-10-07T08:02:04.116Z,14.64
2018-10-07T08:04:32.304Z,14.69
2018-10-07T08:07:00.535Z,14.91
2018-10-07T08:09:28.745Z,14.91
2018-10-07T08:11:57.060Z,15.03
2018-10-07T08:14:25.235Z,15.17
2018-10-07T08:16:53.524Z,15.44
2018-10-07T08:19:21.811Z,15.59
2018-10-07T08:21:50.041Z,15.76
2018-10-07T08:24:18.313Z,15.94
2018-10-07T08:26:47.544Z,16.05
2018-10-07T08:29:15.907Z,16.29
2018-10-07T08:31:44.172Z,16.00
2018-10-07T08:34:12.556Z,16.05
2018-10-07T08:36:40.955Z,16.15
2018-10-07T08:39:09.940Z,16.28
2018-10-07T08:41:38.457Z,16.51
2018-10-07T08:44:06.878Z,16.67
2018-10-07T08:46:35.135Z,16.78
2018-10-07T08:49:03.507Z,16.91
2018-10-07T08:51:31.964Z,16.95
2018-10-07T08:54:00.218Z,17.01
2018-10-07T08:56:28.543Z,17.12
2018-10-07T08:58:56.783Z,17.36
2018-10-07T09:01:24.925Z,17.69
2018-10-07T09:03:53.212Z,17.96
2018-10-07T09:06:21.543Z,18.01
2018-10-07T09:08:49.760Z,18.22
2018-10-07T09:11:18.872Z,18.46
2018-10-07T09:13:47.132Z,18.47
2018-10-07T09:16:15.352Z,18.79
2018-10-07T09:18:43.524Z,19.12
2018-10-07T09:21:11.688Z,19.52
2018-10-07T09:23:39.925Z,19.64
2018-10-07T09:26:08.257Z,19.58
2018-10-07T09:28:37.090Z,19.56
2018-10-07T09:31:05.549Z,19.18
2018-10-07T09:33:34.280Z,18.93
2018-10-07T09:36:02.668Z,18.82
2018-10-07T09:38:30.934Z,18.34
2018-10-07T09:40:59.207Z,18.26
2018-10-07T09:43:27.431Z,18.43
2018-10-07T09:45:55.787Z,18.52
2018-10-07T09:48:24.041Z,18.66
2018-10-07T09:50:52.537Z,18.68
2018-10-07T09:53:20.997Z,18.88
2018-10-07T09:55:49.827Z,19.06
2018-10-07T09:58:17.982Z,19.14
2018-10-07T10:00:46.239Z,19.21
2018-10-07T10:03:14.408Z,19.19
2018-10-07T10:05:42.657Z,19.45
2018-10-07T10:08:10.917Z,19.38
2018-10-07T10:10:39.408Z,19.27
2018-10-07T10:13:07.807Z,19.33
2018-10-07T10:15:36.298Z,19.44
2018-10-07T10:18:07.131Z,19.53
2018-10-07T10:20:44.774Z,19.67
2018-10-07T10:24:06.556Z,19.60
2018-10-07T10:26:40.619Z,19.76
2018-10-07T10:29:17.556Z,19.83
2018-10-07T10:34:00.681Z,19.90
2018-10-07T10:36:35.493Z,19.92
2018-10-07T10:39:15.152Z,19.96
2018-10-07T10:41:50.422Z,20.12
2018-10-07T10:44:31.192Z,20.17
2018-10-07T10:47:12.128Z,20.27
2018-10-07T10:49:47.767Z,20.43
2018-10-07T10:52:27.864Z,20.30
2018-10-07T10:55:35.652Z,20.52
2018-10-07T10:58:09.602Z,20.60
2018-10-07T11:00:40.864Z,20.69
2018-10-07T11:03:13.589Z,20.70
2018-10-07T11:05:52.440Z,20.70
2018-10-07T11:08:34.738Z,20.74
2018-10-07T11:11:07.783Z,20.77
2018-10-07T11:13:42.639Z,20.85
2018-10-07T11:18:22.231Z,20.96
2018-10-07T11:21:17.833Z,21.13
2018-10-07T11:24:04.384Z,21.24
2018-10-07T11:26:41.200Z,21.35
2018-10-07T11:29:18.734Z,20.74
2018-10-07T11:31:53.014Z,20.96
2018-10-07T11:34:37.505Z,20.99
2018-10-07T11:37:13.097Z,21.26
2018-10-07T11:39:57.081Z,21.44
2018-10-07T11:42:30.703Z,21.64
2018-10-07T11:45:11.870Z,21.53
2018-10-07T11:49:53.568Z,21.70
2018-10-07T11:52:47.744Z,21.45
2018-10-07T11:55:16.125Z,21.59
2018-10-07T11:57:44.571Z,21.70
2018-10-07T12:00:12.994Z,21.74
2018-10-07T12:02:41.240Z,22.01
2018-10-07T12:05:09.536Z,21.95
2018-10-07T12:07:38.041Z,21.89
2018-10-07T12:10:06.601Z,22.04
2018-10-07T12:12:35.440Z,22.00
2018-10-07T12:15:04.423Z,22.08
2018-10-07T12:17:32.967Z,22.13
2018-10-07T12:20:01.618Z,22.30
2018-10-07T12:22:30.662Z,22.38
2018-10-07T12:24:59.189Z,22.53
2018-10-07T12:27:28.412Z,22.47
2018-10-07T12:29:57.212Z,22.68
2018-10-07T12:32:25.603Z,22.67
2018-10-07T12:34:54.224Z,22.77
2018-10-07T12:37:22.926Z,22.80
2018-10-07T12:39:51.389Z,22.82
2018-10-07T12:42:19.995Z,22.90
2018-10-07T12:44:48.131Z,22.79
2018-10-07T12:47:16.526Z,22.52
2018-10-07T12:49:44.760Z,22.21
2018-10-07T12:52:13.325Z,22.41
2018-10-07T12:54:42.486Z,22.39
2018-10-07T12:57:10.853Z,22.05
2018-10-07T12:59:39.164Z,22.00
2018-10-07T13:02:07.636Z,22.20
2018-10-07T13:04:36.155Z,22.02
2018-10-07T13:07:04.428Z,21.93
2018-10-07T13:09:32.914Z,21.86
2018-10-07T13:12:01.034Z,21.83
2018-10-07T13:14:29.263Z,21.86
2018-10-07T13:16:57.784Z,21.68
2018-10-07T13:19:26.328Z,21.51
2018-10-07T13:21:55.665Z,21.80
2018-10-07T13:24:24.156Z,22.05
2018-10-07T13:26:52.752Z,21.80
2018-10-07T13:29:21.067Z,21.77
2018-10-07T13:31:49.511Z,21.89
2018-10-07T13:34:17.944Z,21.91
2018-10-07T13:36:46.254Z,21.99
2018-10-07T13:39:14.615Z,21.79
2018-10-07T13:41:42.964Z,21.92
2018-10-07T13:44:11.466Z,22.05
2018-10-07T13:46:39.889Z,22.00
2018-10-07T13:49:08.411Z,22.17
2018-10-07T13:51:36.887Z,21.97
2018-10-07T13:54:05.324Z,22.00
2018-10-07T13:56:33.897Z,21.66
2018-10-07T13:59:02.357Z,21.63
2018-10-07T14:01:30.696Z,21.31
2018-10-07T14:03:59.269Z,21.46
2018-10-07T14:06:27.701Z,21.57
2018-10-07T14:08:57.044Z,21.65
2018-10-07T14:11:25.514Z,21.83
2018-10-07T14:13:53.932Z,22.02
2018-10-07T14:16:22.334Z,22.15
2018-10-07T14:18:50.725Z,22.25
2018-10-07T14:21:19.164Z,22.27
2018-10-07T14:23:47.480Z,21.83
2018-10-07T14:26:18.902Z,22.03
2018-10-07T14:28:47.057Z,22.00
2018-10-07T14:31:15.392Z,22.04
2018-10-07T14:33:43.976Z,21.96
2018-10-07T14:36:12.430Z,22.06
2018-10-07T14:38:41.158Z,22.18
2018-10-07T14:41:09.507Z,22.37
2018-10-07T14:43:37.864Z,22.28
2018-10-07T14:46:06.324Z,21.84
2018-10-07T14:48:34.797Z,21.87
2018-10-07T14:51:03.256Z,21.96
2018-10-07T14:53:31.669Z,22.01
2018-10-07T14:55:59.973Z,21.81
2018-10-07T14:58:28.514Z,21.74
2018-10-07T15:00:56.969Z,21.71
2018-10-07T15:03:25.440Z,21.69
2018-10-07T15:05:53.961Z,21.65
2018-10-07T15:08:22.438Z,21.63
2018-10-07T15:10:50.573Z,21.40
2018-10-07T15:13:19.068Z,21.34
2018-10-07T15:15:47.490Z,21.35
2018-10-07T15:18:15.917Z,21.29
2018-10-07T15:20:44.305Z,21.24
2018-10-07T15:23:12.689Z,21.34
2018-10-07T15:25:41.085Z,21.30
2018-10-07T15:28:09.389Z,21.26
2018-10-07T15:30:37.716Z,21.19
2018-10-07T15:33:05.852Z,21.18
2018-10-07T15:35:34.159Z,21.14
2018-10-07T15:38:02.633Z,20.91
2018-10-07T15:40:31.133Z,20.92
2018-10-07T15:43:00.140Z,20.84
2018-10-07T15:45:28.607Z,20.75
2018-10-07T15:47:57.144Z,20.67
2018-10-07T15:50:25.527Z,20.52
2018-10-07T15:52:54.008Z,20.44
2018-10-07T15:55:22.531Z,20.49
2018-10-07T15:57:50.736Z,20.34
2018-10-07T16:00:19.059Z,20.20
2018-10-07T16:02:47.506Z,20.09
2018-10-07T16:05:15.906Z,20.11
2018-10-07T16:07:44.196Z,20.01
2018-10-07T16:10:12.804Z,20.03
2018-10-07T16:12:40.982Z,19.94
2018-10-07T16:15:09.205Z,19.76
2018-10-07T16:17:37.712Z,19.76
2018-10-07T16:20:06.191Z,19.58
2018-10-07T16:22:34.424Z,19.61
2018-10-07T16:25:02.902Z,19.48
2018-10-07T16:27:31.672Z,19.39
2018-10-07T16:29:59.843Z,19.31
2018-10-07T16:32:28.356Z,19.30
2018-10-07T16:34:56.961Z,19.22
2018-10-07T16:37:25.373Z,19.16
2018-10-07T16:39:53.903Z,19.07
2018-10-07T16:42:22.384Z,18.96
2018-10-07T16:44:50.813Z,18.90
2018-10-07T16:47:19.241Z,18.69
2018-10-07T16:49:47.612Z,18.61
2018-10-07T16:52:15.987Z,18.50
2018-10-07T16:54:44.413Z,18.43
2018-10-07T16:57:12.617Z,18.39
2018-10-07T16:59:40.996Z,18.33
2018-10-07T17:02:09.417Z,18.13
2018-10-07T17:04:37.836Z,18.09
2018-10-07T17:07:06.409Z,18.04
2018-10-07T17:09:34.644Z,17.88
2018-10-07T17:12:03.419Z,17.83
2018-10-07T17:14:31.644Z,17.77
2018-10-07T17:16:59.814Z,17.76
2018-10-07T17:19:28.022Z,17.70
2018-10-07T17:21:56.310Z,17.63
2018-10-07T17:24:24.451Z,17.56
2018-10-07T17:26:52.654Z,17.49
2018-10-07T17:29:21.012Z,17.47
2018-10-07T17:31:49.501Z,17.46
2018-10-07T17:34:17.700Z,17.43
2018-10-07T17:36:45.906Z,17.37
2018-10-07T17:39:14.190Z,17.26
2018-10-07T17:41:42.574Z,17.20
2018-10-07T17:44:10.846Z,17.04
2018-10-07T17:46:39.146Z,17.07
2018-10-07T17:49:07.547Z,16.99
2018-10-07T17:51:35.765Z,16.94
2018-10-07T17:54:04.679Z,16.86
2018-10-07T17:56:32.893Z,16.87
2018-10-07T17:59:01.162Z,16.85
2018-10-07T18:01:29.320Z,16.71
2018-10-07T18:03:57.548Z,16.66
2018-10-07T18:06:25.777Z,16.58
2018-10-07T18:08:54.051Z,16.47
2018-10-07T18:11:22.162Z,16.41
2018-10-07T18:13:50.503Z,16.32
2018-10-07T18:16:18.652Z,16.25
2018-10-07T18:18:47.042Z,16.26
2018-10-07T18:21:15.380Z,16.17
2018-10-07T18:23:43.464Z,16.08
2018-10-07T18:26:11.640Z,16.02
2018-10-07T18:28:39.956Z,15.99
2018-10-07T18:31:08.136Z,15.95
2018-10-07T18:33:36.471Z,15.89
2018-10-07T18:36:04.648Z,15.88
2018-10-07T18:38:33.080Z,15.83
2018-10-07T18:41:01.711Z,15.78
2018-10-07T18:43:30.145Z,15.70
2018-10-07T18:45:58.445Z,15.70
2018-10-07T18:48:26.650Z,15.52
2018-10-07T18:50:54.891Z,15.59
2018-10-07T18:53:23.104Z,15.39
2018-10-07T18:55:51.399Z,15.35
2018-10-07T18:58:19.563Z,15.50
2018-10-07T19:00:47.872Z,15.42
2018-10-07T19:03:16.008Z,15.43
2018-10-07T19:05:44.230Z,15.19
2018-10-07T19:08:12.429Z,15.16
2018-10-07T19:10:40.570Z,15.12
2018-10-07T19:13:08.777Z,15.03
2018-10-07T19:15:37.879Z,15.00
2018-10-07T19:18:06.174Z,14.94
2018-10-07T19:20:34.351Z,14.94
2018-10-07T19:23:02.493Z,14.84
2018-10-07T19:25:30.784Z,14.79
2018-10-07T19:27:59.027Z,14.61
2018-10-07T19:30:27.228Z,14.53
2018-10-07T19:32:55.702Z,14.43
2018-10-07T19:35:23.911Z,14.35
2018-10-07T19:37:52.127Z,14.45
2018-10-07T19:40:20.282Z,14.31
2018-10-07T19:42:48.465Z,14.19
2018-10-07T19:45:16.708Z,14.10
2018-10-07T19:47:44.947Z,14.04
2018-10-07T19:50:13.131Z,13.98
2018-10-07T19:52:41.330Z,13.94
2018-10-07T19:55:09.579Z,13.89
2018-10-07T19:57:37.821Z,13.90
2018-10-07T20:00:06.008Z,13.93
2018-10-07T20:02:34.187Z,13.81
2018-10-07T20:05:02.396Z,13.70
2018-10-07T20:07:30.608Z,13.63
2018-10-07T20:09:58.753Z,13.58
2018-10-07T20:12:26.974Z,13.56
2018-10-07T20:14:55.281Z,13.56
2018-10-07T20:17:23.542Z,13.50
2018-10-07T20:19:51.771Z,13.49
2018-10-07T20:22:20.052Z,13.46
2018-10-07T20:24:48.208Z,13.39
2018-10-07T20:27:16.354Z,13.45
2018-10-07T20:29:44.522Z,13.41
2018-10-07T20:32:12.680Z,13.42
2018-10-07T20:34:41.145Z,13.47
2018-10-07T20:37:09.371Z,13.43
2018-10-07T20:39:37.695Z,13.37
2018-10-07T20:42:05.863Z,13.31
2018-10-07T20:44:34.087Z,13.19
2018-10-07T20:47:02.276Z,13.08
2018-10-07T20:49:30.544Z,12.95
2018-10-07T20:51:58.786Z,12.90
2018-10-07T20:54:27.039Z,12.80
2018-10-07T20:56:55.419Z,12.70
2018-10-07T20:59:23.634Z,12.65
2018-10-07T21:01:51.828Z,12.68
2018-10-07T21:04:20.037Z,12.65
2018-10-07T21:06:48.261Z,12.57
2018-10-07T21:09:16.425Z,12.45
2018-10-07T21:11:44.676Z,12.41
2018-10-07T21:14:12.968Z,12.43
2018-10-07T21:16:41.180Z,12.48
2018-10-07T21:19:09.454Z,12.34
2018-10-07T21:21:37.618Z,12.47
2018-10-07T21:24:05.845Z,12.43
2018-10-07T21:26:34.149Z,12.21
2018-10-07T21:29:02.293Z,12.13
2018-10-07T21:31:30.484Z,12.10
2018-10-07T21:33:58.685Z,12.08
2018-10-07T21:36:26.887Z,12.05
2018-10-07T21:38:55.164Z,12.03
2018-10-07T21:41:23.401Z,11.91
2018-10-07T21:43:51.628Z,11.89
2018-10-07T21:46:19.810Z,12.02
2018-10-07T21:48:47.983Z,11.99
2018-10-07T21:51:16.270Z,11.85
2018-10-07T21:53:44.663Z,11.82
2018-10-07T21:56:13.036Z,11.71
2018-10-07T21:58:41.048Z,11.70
2018-10-07T22:02:39.976Z,11.50
2018-10-07T22:05:08.123Z,11.42
2018-10-07T22:07:36.263Z,11.41
2018-10-07T22:10:04.725Z,11.38
2018-10-07T22:12:33.303Z,11.48
2018-10-07T22:15:01.660Z,11.48
2018-10-07T22:17:29.847Z,11.45
2018-10-07T22:19:58.135Z,11.43
2018-10-07T22:22:26.375Z,11.37
2018-10-07T22:24:54.674Z,11.36
2018-10-07T22:27:22.841Z,11.27
2018-10-07T22:29:51.000Z,11.23
2018-10-07T22:32:19.143Z,11.22
2018-10-07T22:34:47.335Z,11.17
2018-10-07T22:37:16.492Z,11.13
2018-10-07T22:39:44.796Z,11.07
2018-10-07T22:42:13.019Z,11.03
2018-10-07T22:44:41.165Z,10.99
2018-10-07T22:47:09.364Z,11.04
2018-10-07T22:49:37.544Z,10.99
2018-10-07T22:52:05.971Z,10.90
2018-10-07T22:54:34.123Z,10.88
2018-10-07T22:57:02.275Z,10.86
2018-10-07T22:59:30.584Z,10.89
2018-10-07T23:01:58.841Z,11.04
2018-10-07T23:04:27.007Z,11.07
2018-10-07T23:06:55.159Z,11.01
2018-10-07T23:09:23.453Z,10.83
2018-10-07T23:11:51.699Z,10.81
2018-10-07T23:14:19.960Z,10.75
2018-10-07T23:16:48.084Z,10.75
2018-10-07T23:19:16.381Z,10.70
2018-10-07T23:21:44.552Z,10.69
2018-10-07T23:24:12.779Z,10.74
2018-10-07T23:26:41.041Z,10.74
2018-10-07T23:29:09.257Z,10.67
2018-10-07T23:31:37.536Z,10.49
2018-10-07T23:34:05.693Z,10.53
2018-10-07T23:36:33.904Z,10.52
2018-10-07T23:39:02.104Z,10.50
2018-10-07T23:41:30.263Z,10.48
2018-10-07T23:43:58.503Z,10.42
2018-10-07T23:46:26.699Z,10.41
2018-10-07T23:48:55.082Z,10.39
2018-10-07T23:51:23.313Z,10.36
2018-10-07T23:53:51.527Z,10.40
2018-10-07T23:56:19.779Z,10.29
2018-10-07T23:58:48.929Z,10.31
